FTU5084 ZUGH-ZHLY
Flight info
| Callsign | FTU5084 |
|---|---|
| Flight time | N/A |
| Altitude | 14800 |
| Route | GHN DCT JTG DCT GURET W233 AGULU W81 APIMI W275 NSH W281 SUDGO W4 OMLIX DCT LYA |
| Aircraft | MA60/M-SDFGIRY/S |
Departure
| Time | 2026-05-07 11:58 |
|---|---|
| Airport | Guanghan Airport (ZUGH) |
Arrival
| Time | N/A |
|---|---|
| Airport | Luoyang Beijiao Airport (ZHLY) |
| Time | Latitude | Longitude | Altitude | Speed | Heading |
|---|---|---|---|---|---|
| 2026-05-07 11:38 | 30.94697 | 104.32719 | 1526 ft | 0 kts | 36° |
| 2026-05-07 11:46 | 30.94698 | 104.32720 | 1534 ft | 1 kts | 36° |
| 2026-05-07 11:46 | 30.94706 | 104.32727 | 1527 ft | 2 kts | 36° |
| 2026-05-07 11:47 | 30.94709 | 104.32729 | 1528 ft | 0 kts | 36° |
| 2026-05-07 11:48 | 30.94711 | 104.32731 | 1528 ft | 1 kts | 36° |
| 2026-05-07 11:48 | 30.94721 | 104.32739 | 1535 ft | 2 kts | 36° |
| 2026-05-07 11:48 | 30.94735 | 104.32751 | 1529 ft | 2 kts | 36° |
| 2026-05-07 11:48 | 30.94741 | 104.32756 | 1530 ft | 1 kts | 36° |
| 2026-05-07 11:49 | 30.94750 | 104.32760 | 1529 ft | 1 kts | 12° |
| 2026-05-07 11:49 | 30.94758 | 104.32759 | 1530 ft | 1 kts | 342° |
| 2026-05-07 11:49 | 30.94768 | 104.32749 | 1534 ft | 3 kts | 315° |
| 2026-05-07 11:49 | 30.94785 | 104.32723 | 1532 ft | 5 kts | 306° |
| 2026-05-07 11:50 | 30.94807 | 104.32688 | 1532 ft | 6 kts | 306° |
| 2026-05-07 11:50 | 30.94821 | 104.32665 | 1528 ft | 0 kts | 306° |
| 2026-05-07 11:50 | 30.94832 | 104.32646 | 1536 ft | 5 kts | 306° |
| 2026-05-07 11:50 | 30.94857 | 104.32607 | 1533 ft | 6 kts | 306° |
| 2026-05-07 11:51 | 30.94885 | 104.32562 | 1533 ft | 7 kts | 306° |
| 2026-05-07 11:51 | 30.94914 | 104.32514 | 1530 ft | 7 kts | 306° |
| 2026-05-07 11:51 | 30.94945 | 104.32466 | 1532 ft | 7 kts | 307° |
| 2026-05-07 11:51 | 30.94976 | 104.32419 | 1532 ft | 7 kts | 306° |
| 2026-05-07 11:52 | 30.95006 | 104.32371 | 1529 ft | 7 kts | 306° |
| 2026-05-07 11:52 | 30.95037 | 104.32324 | 1530 ft | 7 kts | 306° |
| 2026-05-07 11:52 | 30.95067 | 104.32275 | 1526 ft | 8 kts | 306° |
| 2026-05-07 11:52 | 30.95099 | 104.32226 | 1532 ft | 8 kts | 307° |
| 2026-05-07 11:53 | 30.95125 | 104.32185 | 1532 ft | 3 kts | 306° |
| 2026-05-07 11:53 | 30.95142 | 104.32157 | 1532 ft | 5 kts | 306° |
| 2026-05-07 11:53 | 30.95166 | 104.32119 | 1532 ft | 6 kts | 306° |
| 2026-05-07 11:53 | 30.95178 | 104.32100 | 1532 ft | 2 kts | 306° |
| 2026-05-07 11:54 | 30.95193 | 104.32078 | 1531 ft | 4 kts | 313° |
| 2026-05-07 11:54 | 30.95210 | 104.32063 | 1529 ft | 5 kts | 329° |
| 2026-05-07 11:54 | 30.95250 | 104.32047 | 1532 ft | 4 kts | 349° |
| 2026-05-07 11:54 | 30.95278 | 104.32042 | 1536 ft | 4 kts | 352° |
| 2026-05-07 11:55 | 30.95303 | 104.32038 | 1534 ft | 3 kts | 352° |
| 2026-05-07 11:55 | 30.95325 | 104.32035 | 1536 ft | 3 kts | 353° |
| 2026-05-07 11:55 | 30.95345 | 104.32032 | 1538 ft | 3 kts | 352° |
| 2026-05-07 11:55 | 30.95364 | 104.32029 | 1532 ft | 3 kts | 352° |
| 2026-05-07 11:56 | 30.95380 | 104.32030 | 1539 ft | 2 kts | 12° |
| 2026-05-07 11:56 | 30.95388 | 104.32034 | 1539 ft | 2 kts | 24° |
| 2026-05-07 11:56 | 30.95403 | 104.32051 | 1535 ft | 2 kts | 65° |
| 2026-05-07 11:56 | 30.95403 | 104.32072 | 1534 ft | 3 kts | 101° |
| 2026-05-07 11:57 | 30.95396 | 104.32091 | 1538 ft | 4 kts | 123° |
| 2026-05-07 11:57 | 30.95386 | 104.32107 | 1537 ft | 15 kts | 126° |
| 2026-05-07 11:57 | 30.95176 | 104.32437 | 1539 ft | 89 kts | 127° |
| 2026-05-07 11:57 | 30.94705 | 104.33227 | 1716 ft | 131 kts | 126° |
| 2026-05-07 11:58 | 30.94341 | 104.33804 | 2129 ft | 137 kts | 127° |
| 2026-05-07 11:58 | 30.93397 | 104.35098 | 2597 ft | 180 kts | 129° |
| 2026-05-07 11:58 | 30.92600 | 104.36217 | 3328 ft | 177 kts | 127° |
| 2026-05-07 11:58 | 30.92087 | 104.36949 | 3881 ft | 173 kts | 126° |
| 2026-05-07 11:59 | 30.91338 | 104.38034 | 4714 ft | 168 kts | 126° |
| 2026-05-07 11:59 | 30.90614 | 104.39083 | 5496 ft | 164 kts | 131° |
| 2026-05-07 11:59 | 30.89580 | 104.39670 | 6206 ft | 171 kts | 167° |
| 2026-05-07 11:59 | 30.88584 | 104.40312 | 6796 ft | 164 kts | 117° |
| 2026-05-07 12:00 | 30.88514 | 104.41545 | 7405 ft | 157 kts | 59° |
| 2026-05-07 12:00 | 30.89254 | 104.42458 | 7956 ft | 157 kts | 50° |
| 2026-05-07 12:00 | 30.89592 | 104.43677 | 8442 ft | 164 kts | 78° |
| 2026-05-07 12:00 | 30.89857 | 104.44957 | 8903 ft | 163 kts | 69° |
| 2026-05-07 12:01 | 30.90251 | 104.46195 | 9372 ft | 163 kts | 65° |
| 2026-05-07 12:01 | 30.90698 | 104.47415 | 9848 ft | 164 kts | 63° |
| 2026-05-07 12:01 | 30.91157 | 104.48629 | 10297 ft | 165 kts | 62° |
| 2026-05-07 12:01 | 30.91626 | 104.49870 | 10691 ft | 169 kts | 63° |
| 2026-05-07 12:02 | 30.92114 | 104.51115 | 11104 ft | 170 kts | 63° |
| 2026-05-07 12:02 | 30.92608 | 104.52376 | 11502 ft | 172 kts | 63° |
| 2026-05-07 12:02 | 30.93098 | 104.53662 | 11918 ft | 175 kts | 64° |
| 2026-05-07 12:02 | 30.93593 | 104.54975 | 12309 ft | 178 kts | 64° |
| 2026-05-07 12:03 | 30.94081 | 104.56292 | 12699 ft | 181 kts | 65° |
| 2026-05-07 12:03 | 30.94551 | 104.57554 | 13047 ft | 184 kts | 65° |
| 2026-05-07 12:03 | 30.95062 | 104.58911 | 13414 ft | 187 kts | 65° |
| 2026-05-07 12:03 | 30.95593 | 104.60335 | 13793 ft | 190 kts | 66° |
| 2026-05-07 12:04 | 30.96123 | 104.61755 | 14114 ft | 193 kts | 66° |
| 2026-05-07 12:04 | 30.96657 | 104.63198 | 14430 ft | 196 kts | 65° |
| 2026-05-07 12:04 | 30.97204 | 104.64664 | 14704 ft | 201 kts | 65° |
| 2026-05-07 12:04 | 30.97790 | 104.66242 | 14798 ft | 216 kts | 66° |
| 2026-05-07 12:05 | 30.98395 | 104.67878 | 14837 ft | 232 kts | 66° |
| 2026-05-07 12:05 | 30.99069 | 104.69690 | 14857 ft | 247 kts | 66° |
| 2026-05-07 12:05 | 30.99763 | 104.71551 | 14867 ft | 259 kts | 66° |
| 2026-05-07 12:05 | 31.00487 | 104.73499 | 14871 ft | 269 kts | 66° |
| 2026-05-07 12:06 | 31.01245 | 104.75543 | 14868 ft | 276 kts | 66° |
| 2026-05-07 12:06 | 31.02016 | 104.77621 | 14875 ft | 282 kts | 66° |
| 2026-05-07 12:06 | 31.02797 | 104.79735 | 14875 ft | 286 kts | 66° |
| 2026-05-07 12:06 | 31.03587 | 104.81864 | 14874 ft | 289 kts | 66° |
| 2026-05-07 12:07 | 31.04388 | 104.84026 | 14871 ft | 291 kts | 66° |
| 2026-05-07 12:07 | 31.05194 | 104.86210 | 14873 ft | 293 kts | 66° |
| 2026-05-07 12:07 | 31.06003 | 104.88396 | 14872 ft | 293 kts | 66° |
| 2026-05-07 12:07 | 31.06810 | 104.90586 | 14870 ft | 294 kts | 66° |
| 2026-05-07 12:08 | 31.07622 | 104.92778 | 14872 ft | 294 kts | 66° |
| 2026-05-07 12:08 | 31.08413 | 104.94930 | 14876 ft | 294 kts | 66° |
| 2026-05-07 12:08 | 31.09228 | 104.97136 | 14876 ft | 294 kts | 66° |
| 2026-05-07 12:08 | 31.10032 | 104.99326 | 14875 ft | 295 kts | 66° |
| 2026-05-07 12:09 | 31.10843 | 105.01524 | 14876 ft | 295 kts | 66° |
| 2026-05-07 12:09 | 31.11650 | 105.03720 | 14871 ft | 295 kts | 67° |
| 2026-05-07 12:09 | 31.12461 | 105.05922 | 14875 ft | 294 kts | 66° |
| 2026-05-07 12:09 | 31.13262 | 105.08107 | 14875 ft | 294 kts | 67° |
| 2026-05-07 12:10 | 31.14074 | 105.10316 | 14881 ft | 294 kts | 66° |
| 2026-05-07 12:10 | 31.14877 | 105.12503 | 14879 ft | 294 kts | 67° |
| 2026-05-07 12:10 | 31.15681 | 105.14697 | 14877 ft | 294 kts | 67° |
| 2026-05-07 12:10 | 31.16490 | 105.16901 | 14880 ft | 294 kts | 67° |
| 2026-05-07 12:11 | 31.17286 | 105.19077 | 14880 ft | 294 kts | 67° |
| 2026-05-07 12:11 | 31.18098 | 105.21292 | 14878 ft | 294 kts | 67° |
| 2026-05-07 12:11 | 31.18902 | 105.23492 | 14882 ft | 294 kts | 67° |
| 2026-05-07 12:11 | 31.19688 | 105.25641 | 14879 ft | 293 kts | 67° |
| 2026-05-07 12:12 | 31.20488 | 105.27838 | 14878 ft | 293 kts | 67° |
| 2026-05-07 12:12 | 31.21292 | 105.30038 | 14881 ft | 293 kts | 67° |
| 2026-05-07 12:12 | 31.22101 | 105.32246 | 14886 ft | 293 kts | 67° |
| 2026-05-07 12:12 | 31.22903 | 105.34442 | 14883 ft | 293 kts | 67° |
| 2026-05-07 12:13 | 31.23718 | 105.36592 | 14882 ft | 292 kts | 63° |
| 2026-05-07 12:13 | 31.24803 | 105.38576 | 14880 ft | 291 kts | 54° |
| 2026-05-07 12:13 | 31.26012 | 105.40502 | 14882 ft | 291 kts | 54° |
| 2026-05-07 12:13 | 31.27154 | 105.42453 | 14886 ft | 291 kts | 57° |
| 2026-05-07 12:14 | 31.28261 | 105.44443 | 14887 ft | 292 kts | 57° |
| 2026-05-07 12:14 | 31.29370 | 105.46438 | 14883 ft | 292 kts | 57° |
| 2026-05-07 12:14 | 31.30484 | 105.48431 | 14883 ft | 293 kts | 56° |
| 2026-05-07 12:14 | 31.31613 | 105.50412 | 14884 ft | 293 kts | 56° |
| 2026-05-07 12:15 | 31.32746 | 105.52390 | 14890 ft | 293 kts | 56° |
| 2026-05-07 12:15 | 31.33877 | 105.54367 | 14882 ft | 293 kts | 56° |
| 2026-05-07 12:15 | 31.35015 | 105.56352 | 14887 ft | 293 kts | 56° |
| 2026-05-07 12:15 | 31.36146 | 105.58330 | 14880 ft | 293 kts | 56° |
| 2026-05-07 12:16 | 31.37279 | 105.60315 | 14886 ft | 293 kts | 56° |
| 2026-05-07 12:16 | 31.38413 | 105.62298 | 14887 ft | 293 kts | 56° |
| 2026-05-07 12:16 | 31.39546 | 105.64283 | 14888 ft | 293 kts | 56° |
| 2026-05-07 12:16 | 31.40680 | 105.66272 | 14884 ft | 293 kts | 56° |
| 2026-05-07 12:17 | 31.41816 | 105.68260 | 14887 ft | 293 kts | 56° |
| 2026-05-07 12:17 | 31.42951 | 105.70251 | 14883 ft | 294 kts | 56° |
| 2026-05-07 12:17 | 31.44085 | 105.72239 | 14890 ft | 294 kts | 56° |
| 2026-05-07 12:17 | 31.45203 | 105.74202 | 14884 ft | 294 kts | 56° |
| 2026-05-07 12:18 | 31.46336 | 105.76191 | 14885 ft | 294 kts | 56° |
| 2026-05-07 12:18 | 31.47470 | 105.78180 | 14887 ft | 294 kts | 56° |
| 2026-05-07 12:18 | 31.48606 | 105.80175 | 14887 ft | 294 kts | 56° |
| 2026-05-07 12:18 | 31.49739 | 105.82173 | 14887 ft | 294 kts | 56° |
| 2026-05-07 12:19 | 31.50872 | 105.84168 | 14885 ft | 294 kts | 56° |
| 2026-05-07 12:19 | 31.52009 | 105.86170 | 14888 ft | 294 kts | 56° |
| 2026-05-07 12:19 | 31.53141 | 105.88167 | 14887 ft | 294 kts | 56° |
| 2026-05-07 12:19 | 31.54278 | 105.90167 | 14887 ft | 294 kts | 56° |
| 2026-05-07 12:20 | 31.55409 | 105.92166 | 14884 ft | 294 kts | 56° |
| 2026-05-07 12:20 | 31.56543 | 105.94165 | 14885 ft | 294 kts | 56° |
| 2026-05-07 12:20 | 31.57675 | 105.96165 | 14887 ft | 294 kts | 56° |
| 2026-05-07 12:20 | 31.58805 | 105.98163 | 14883 ft | 294 kts | 56° |
| 2026-05-07 12:21 | 31.59937 | 106.00162 | 14891 ft | 294 kts | 56° |
| 2026-05-07 12:21 | 31.61066 | 106.02158 | 14888 ft | 294 kts | 56° |
| 2026-05-07 12:21 | 31.62197 | 106.04157 | 14886 ft | 294 kts | 56° |
| 2026-05-07 12:21 | 31.63327 | 106.06157 | 14884 ft | 294 kts | 56° |
| 2026-05-07 12:22 | 31.64455 | 106.08156 | 14889 ft | 294 kts | 57° |
| 2026-05-07 12:22 | 31.65582 | 106.10154 | 14887 ft | 294 kts | 56° |
| 2026-05-07 12:22 | 31.66713 | 106.12152 | 14891 ft | 294 kts | 57° |
| 2026-05-07 12:22 | 31.67840 | 106.14154 | 14894 ft | 294 kts | 57° |
| 2026-05-07 12:23 | 31.68966 | 106.16154 | 14892 ft | 294 kts | 57° |
| 2026-05-07 12:23 | 31.70082 | 106.18130 | 14891 ft | 294 kts | 57° |
| 2026-05-07 12:23 | 31.71209 | 106.20137 | 14895 ft | 294 kts | 57° |
| 2026-05-07 12:23 | 31.72338 | 106.22141 | 14886 ft | 294 kts | 57° |
| 2026-05-07 12:24 | 31.73464 | 106.24143 | 14892 ft | 294 kts | 57° |
| 2026-05-07 12:24 | 31.74591 | 106.26151 | 14897 ft | 295 kts | 57° |
| 2026-05-07 12:24 | 31.75721 | 106.28162 | 14897 ft | 295 kts | 57° |
| 2026-05-07 12:24 | 31.76848 | 106.30172 | 14893 ft | 295 kts | 57° |
| 2026-05-07 12:25 | 31.77969 | 106.32167 | 14895 ft | 295 kts | 57° |
| 2026-05-07 12:25 | 31.79105 | 106.34194 | 14900 ft | 295 kts | 57° |
| 2026-05-07 12:25 | 31.80231 | 106.36202 | 14897 ft | 295 kts | 57° |
| 2026-05-07 12:25 | 31.81360 | 106.38216 | 14900 ft | 294 kts | 57° |
| 2026-05-07 12:26 | 31.82489 | 106.40230 | 14897 ft | 294 kts | 57° |
| 2026-05-07 12:26 | 31.83615 | 106.42241 | 14896 ft | 294 kts | 57° |
| 2026-05-07 12:26 | 31.84738 | 106.44254 | 14899 ft | 294 kts | 57° |
| 2026-05-07 12:26 | 31.85861 | 106.46259 | 14897 ft | 294 kts | 57° |
| 2026-05-07 12:27 | 31.86980 | 106.48264 | 14903 ft | 294 kts | 57° |
| 2026-05-07 12:27 | 31.88104 | 106.50280 | 14901 ft | 294 kts | 57° |
| 2026-05-07 12:27 | 31.89228 | 106.52288 | 14903 ft | 294 kts | 57° |
| 2026-05-07 12:27 | 31.90350 | 106.54307 | 14904 ft | 294 kts | 57° |
| 2026-05-07 12:28 | 31.91456 | 106.56299 | 14903 ft | 294 kts | 57° |
| 2026-05-07 12:28 | 31.92577 | 106.58315 | 14901 ft | 295 kts | 57° |
| 2026-05-07 12:28 | 31.93700 | 106.60334 | 14902 ft | 294 kts | 57° |
| 2026-05-07 12:28 | 31.94822 | 106.62354 | 14912 ft | 295 kts | 57° |
| 2026-05-07 12:29 | 31.95944 | 106.64370 | 14907 ft | 295 kts | 57° |
| 2026-05-07 12:29 | 31.97068 | 106.66397 | 14912 ft | 295 kts | 57° |
| 2026-05-07 12:29 | 31.98190 | 106.68420 | 14906 ft | 295 kts | 57° |
| 2026-05-07 12:29 | 31.99314 | 106.70449 | 14911 ft | 296 kts | 57° |
| 2026-05-07 12:30 | 32.00438 | 106.72475 | 14911 ft | 295 kts | 57° |
| 2026-05-07 12:30 | 32.01562 | 106.74503 | 14914 ft | 295 kts | 57° |
| 2026-05-07 12:30 | 32.02687 | 106.76536 | 14916 ft | 296 kts | 57° |
| 2026-05-07 12:30 | 32.03797 | 106.78542 | 14906 ft | 295 kts | 57° |
| 2026-05-07 12:31 | 32.04918 | 106.80569 | 14919 ft | 295 kts | 57° |
| 2026-05-07 12:31 | 32.06038 | 106.82595 | 14913 ft | 295 kts | 57° |
| 2026-05-07 12:31 | 32.07157 | 106.84623 | 14919 ft | 294 kts | 57° |
| 2026-05-07 12:31 | 32.08272 | 106.86643 | 14921 ft | 294 kts | 57° |
| 2026-05-07 12:32 | 32.09389 | 106.88665 | 14922 ft | 294 kts | 57° |
| 2026-05-07 12:32 | 32.10500 | 106.90680 | 14926 ft | 293 kts | 57° |
| 2026-05-07 12:32 | 32.11612 | 106.92697 | 14927 ft | 293 kts | 57° |
| 2026-05-07 12:32 | 32.12719 | 106.94705 | 14921 ft | 292 kts | 57° |
| 2026-05-07 12:33 | 32.14927 | 106.98712 | 14926 ft | 290 kts | 57° |
| 2026-05-07 12:33 | 32.16026 | 107.00709 | 14927 ft | 289 kts | 57° |
| 2026-05-07 12:33 | 32.17119 | 107.02701 | 14932 ft | 289 kts | 57° |
| 2026-05-07 12:34 | 32.18209 | 107.04683 | 14930 ft | 288 kts | 56° |
| 2026-05-07 12:34 | 32.19296 | 107.06662 | 14933 ft | 287 kts | 56° |
| 2026-05-07 12:34 | 32.20382 | 107.08641 | 14931 ft | 286 kts | 56° |
| 2026-05-07 12:34 | 32.21462 | 107.10609 | 14939 ft | 286 kts | 56° |
| 2026-05-07 12:35 | 32.22543 | 107.12580 | 14944 ft | 286 kts | 56° |
| 2026-05-07 12:35 | 32.23622 | 107.14548 | 14943 ft | 286 kts | 56° |
| 2026-05-07 12:35 | 32.24688 | 107.16496 | 14942 ft | 285 kts | 57° |
| 2026-05-07 12:35 | 32.25762 | 107.18463 | 14943 ft | 285 kts | 57° |
| 2026-05-07 12:36 | 32.26739 | 107.20489 | 14946 ft | 284 kts | 66° |
| 2026-05-07 12:36 | 32.27410 | 107.22691 | 14949 ft | 286 kts | 71° |
| 2026-05-07 12:36 | 32.28013 | 107.24933 | 14943 ft | 286 kts | 71° |
| 2026-05-07 12:36 | 32.28633 | 107.27165 | 14951 ft | 286 kts | 70° |
| 2026-05-07 12:37 | 32.29304 | 107.29381 | 14949 ft | 286 kts | 69° |
| 2026-05-07 12:37 | 32.29993 | 107.31586 | 14948 ft | 286 kts | 69° |
| 2026-05-07 12:37 | 32.30673 | 107.33793 | 14951 ft | 286 kts | 69° |
| 2026-05-07 12:37 | 32.31351 | 107.35997 | 14949 ft | 285 kts | 69° |
| 2026-05-07 12:38 | 32.32029 | 107.38202 | 14950 ft | 284 kts | 69° |
| 2026-05-07 12:38 | 32.32705 | 107.40398 | 14949 ft | 284 kts | 69° |
| 2026-05-07 12:38 | 32.33378 | 107.42590 | 14961 ft | 284 kts | 69° |
| 2026-05-07 12:38 | 32.34055 | 107.44793 | 14957 ft | 285 kts | 69° |
| 2026-05-07 12:39 | 32.34730 | 107.47000 | 14962 ft | 285 kts | 69° |
| 2026-05-07 12:39 | 32.35407 | 107.49207 | 14959 ft | 285 kts | 69° |
| 2026-05-07 12:39 | 32.36083 | 107.51417 | 14956 ft | 285 kts | 69° |
| 2026-05-07 12:39 | 32.36757 | 107.53621 | 14953 ft | 285 kts | 69° |
| 2026-05-07 12:40 | 32.37434 | 107.55830 | 14956 ft | 285 kts | 69° |
| 2026-05-07 12:40 | 32.38107 | 107.58034 | 14958 ft | 285 kts | 70° |
| 2026-05-07 12:40 | 32.38770 | 107.60211 | 14960 ft | 285 kts | 70° |
| 2026-05-07 12:40 | 32.39444 | 107.62418 | 14960 ft | 285 kts | 70° |
| 2026-05-07 12:41 | 32.40119 | 107.64627 | 14961 ft | 285 kts | 69° |
| 2026-05-07 12:41 | 32.40791 | 107.66836 | 14962 ft | 285 kts | 70° |
| 2026-05-07 12:41 | 32.41462 | 107.69040 | 14962 ft | 285 kts | 70° |
| 2026-05-07 12:41 | 32.42134 | 107.71250 | 14966 ft | 285 kts | 69° |
| 2026-05-07 12:42 | 32.42806 | 107.73460 | 14963 ft | 285 kts | 70° |
| 2026-05-07 12:42 | 32.43478 | 107.75675 | 14970 ft | 285 kts | 69° |
| 2026-05-07 12:42 | 32.44150 | 107.77888 | 14966 ft | 285 kts | 69° |
| 2026-05-07 12:42 | 32.44820 | 107.80092 | 14962 ft | 285 kts | 69° |
| 2026-05-07 12:43 | 32.45490 | 107.82302 | 14967 ft | 285 kts | 69° |
| 2026-05-07 12:43 | 32.46158 | 107.84506 | 14963 ft | 285 kts | 69° |
| 2026-05-07 12:43 | 32.46828 | 107.86713 | 14962 ft | 284 kts | 69° |
| 2026-05-07 12:43 | 32.47494 | 107.88920 | 14966 ft | 284 kts | 69° |
| 2026-05-07 12:44 | 32.47934 | 107.90377 | 14965 ft | 284 kts | 69° |
| 2026-05-07 12:44 | 32.48826 | 107.93322 | 14970 ft | 284 kts | 69° |
| 2026-05-07 12:44 | 32.49480 | 107.95495 | 14966 ft | 284 kts | 69° |
| 2026-05-07 12:44 | 32.50145 | 107.97694 | 14966 ft | 284 kts | 69° |
| 2026-05-07 12:45 | 32.50592 | 107.99176 | 14966 ft | 283 kts | 69° |
| 2026-05-07 12:45 | 32.51793 | 108.01879 | 14969 ft | 281 kts | 44° |
| 2026-05-07 12:45 | 32.53379 | 108.03197 | 14971 ft | 280 kts | 28° |
| 2026-05-07 12:45 | 32.55182 | 108.04071 | 14969 ft | 280 kts | 18° |
| 2026-05-07 12:46 | 32.56450 | 108.04499 | 14967 ft | 280 kts | 15° |
| 2026-05-07 12:46 | 32.58317 | 108.05068 | 14969 ft | 281 kts | 15° |
| 2026-05-07 12:46 | 32.60843 | 108.05869 | 14966 ft | 281 kts | 16° |
| 2026-05-07 12:46 | 32.62083 | 108.06298 | 14962 ft | 281 kts | 17° |
| 2026-05-07 12:47 | 32.63963 | 108.06965 | 14959 ft | 282 kts | 17° |
| 2026-05-07 12:47 | 32.65846 | 108.07630 | 14967 ft | 282 kts | 17° |
| 2026-05-07 12:47 | 32.68366 | 108.08520 | 14967 ft | 283 kts | 17° |
| 2026-05-07 12:47 | 32.69617 | 108.08964 | 14961 ft | 283 kts | 17° |
| 2026-05-07 12:48 | 32.71502 | 108.09632 | 14961 ft | 283 kts | 17° |
| 2026-05-07 12:48 | 32.73392 | 108.10298 | 14957 ft | 283 kts | 17° |
| 2026-05-07 12:48 | 32.75278 | 108.10967 | 14960 ft | 283 kts | 17° |
| 2026-05-07 12:48 | 32.77166 | 108.11634 | 14960 ft | 283 kts | 17° |
| 2026-05-07 12:49 | 32.79054 | 108.12306 | 14963 ft | 283 kts | 17° |
| 2026-05-07 12:49 | 32.80944 | 108.12974 | 14955 ft | 283 kts | 17° |
| 2026-05-07 12:49 | 32.82830 | 108.13642 | 14958 ft | 283 kts | 17° |
| 2026-05-07 12:49 | 32.84714 | 108.14311 | 14964 ft | 283 kts | 17° |
| 2026-05-07 12:50 | 32.86607 | 108.14983 | 14952 ft | 283 kts | 17° |
| 2026-05-07 12:50 | 32.88495 | 108.15653 | 14957 ft | 283 kts | 17° |
| 2026-05-07 12:50 | 32.90386 | 108.16327 | 14952 ft | 283 kts | 17° |
| 2026-05-07 12:50 | 32.92276 | 108.17000 | 14963 ft | 284 kts | 17° |
| 2026-05-07 12:51 | 32.94171 | 108.17672 | 14959 ft | 284 kts | 17° |
| 2026-05-07 12:51 | 32.96061 | 108.18345 | 14956 ft | 284 kts | 17° |
| 2026-05-07 12:51 | 32.97929 | 108.19010 | 14964 ft | 284 kts | 17° |
| 2026-05-07 12:51 | 32.99846 | 108.19692 | 14957 ft | 284 kts | 17° |
| 2026-05-07 12:52 | 33.01735 | 108.20365 | 14960 ft | 284 kts | 17° |
| 2026-05-07 12:52 | 33.03612 | 108.21034 | 14962 ft | 284 kts | 17° |
| 2026-05-07 12:52 | 33.05507 | 108.21709 | 14969 ft | 284 kts | 17° |
| 2026-05-07 12:52 | 33.07401 | 108.22385 | 14963 ft | 284 kts | 17° |
| 2026-05-07 12:53 | 33.09293 | 108.23060 | 14961 ft | 284 kts | 17° |
| 2026-05-07 12:53 | 33.11187 | 108.23737 | 14967 ft | 284 kts | 17° |
| 2026-05-07 12:53 | 33.13085 | 108.24413 | 14964 ft | 284 kts | 17° |
| 2026-05-07 12:53 | 33.14976 | 108.25091 | 14968 ft | 284 kts | 17° |
| 2026-05-07 12:54 | 33.16868 | 108.25768 | 14965 ft | 283 kts | 17° |
| 2026-05-07 12:54 | 33.18760 | 108.26444 | 14969 ft | 283 kts | 17° |
| 2026-05-07 12:54 | 33.20647 | 108.27119 | 14974 ft | 283 kts | 17° |
| 2026-05-07 12:54 | 33.22532 | 108.27794 | 14967 ft | 282 kts | 17° |
| 2026-05-07 12:55 | 33.24366 | 108.28452 | 14977 ft | 277 kts | 17° |
| 2026-05-07 12:55 | 33.26224 | 108.29116 | 14981 ft | 279 kts | 17° |
| 2026-05-07 12:55 | 33.28092 | 108.29787 | 14977 ft | 281 kts | 17° |
| 2026-05-07 12:55 | 33.29945 | 108.30510 | 14979 ft | 277 kts | 25° |
| 2026-05-07 12:56 | 33.31389 | 108.31999 | 14978 ft | 278 kts | 57° |
| 2026-05-07 12:56 | 33.32119 | 108.34139 | 14982 ft | 280 kts | 75° |
| 2026-05-07 12:56 | 33.32417 | 108.36458 | 14985 ft | 283 kts | 84° |
| 2026-05-07 12:56 | 33.32553 | 108.38804 | 14985 ft | 283 kts | 85° |
| 2026-05-07 12:57 | 33.32667 | 108.41162 | 14985 ft | 283 kts | 85° |
| 2026-05-07 12:57 | 33.32808 | 108.43506 | 14990 ft | 283 kts | 84° |
| 2026-05-07 12:57 | 33.32993 | 108.45844 | 14994 ft | 283 kts | 83° |
| 2026-05-07 12:57 | 33.33188 | 108.48192 | 14992 ft | 283 kts | 83° |
| 2026-05-07 12:58 | 33.33376 | 108.50536 | 14995 ft | 283 kts | 83° |
| 2026-05-07 12:58 | 33.33564 | 108.52877 | 14990 ft | 282 kts | 83° |
| 2026-05-07 12:58 | 33.33754 | 108.55187 | 14986 ft | 282 kts | 83° |
| 2026-05-07 12:58 | 33.33948 | 108.57520 | 14993 ft | 282 kts | 83° |
| 2026-05-07 12:59 | 33.34143 | 108.59856 | 15000 ft | 282 kts | 83° |
| 2026-05-07 12:59 | 33.34334 | 108.62195 | 15003 ft | 283 kts | 83° |
| 2026-05-07 12:59 | 33.34520 | 108.64539 | 14996 ft | 283 kts | 83° |
| 2026-05-07 12:59 | 33.34713 | 108.66885 | 14993 ft | 283 kts | 83° |
| 2026-05-07 13:00 | 33.34909 | 108.69237 | 14998 ft | 284 kts | 83° |
| 2026-05-07 13:00 | 33.35102 | 108.71584 | 14993 ft | 284 kts | 83° |
| 2026-05-07 13:00 | 33.35287 | 108.73945 | 14997 ft | 284 kts | 83° |
| 2026-05-07 13:00 | 33.35471 | 108.76299 | 15001 ft | 284 kts | 83° |
| 2026-05-07 13:01 | 33.35654 | 108.78661 | 14997 ft | 285 kts | 83° |
| 2026-05-07 13:01 | 33.35838 | 108.81025 | 15000 ft | 285 kts | 83° |
| 2026-05-07 13:01 | 33.36023 | 108.83382 | 14998 ft | 286 kts | 83° |
| 2026-05-07 13:01 | 33.36208 | 108.85746 | 14996 ft | 284 kts | 83° |
| 2026-05-07 13:02 | 33.36384 | 108.88090 | 14991 ft | 283 kts | 84° |
| 2026-05-07 13:02 | 33.36557 | 108.90439 | 14995 ft | 284 kts | 84° |
| 2026-05-07 13:02 | 33.36722 | 108.92773 | 14993 ft | 285 kts | 84° |
| 2026-05-07 13:02 | 33.36895 | 108.95139 | 14993 ft | 285 kts | 83° |
| 2026-05-07 13:03 | 33.37075 | 108.97498 | 14988 ft | 286 kts | 83° |
| 2026-05-07 13:03 | 33.37260 | 108.99871 | 14984 ft | 286 kts | 83° |
| 2026-05-07 13:03 | 33.37446 | 109.02237 | 14980 ft | 286 kts | 83° |
| 2026-05-07 13:03 | 33.37627 | 109.04597 | 14994 ft | 285 kts | 83° |
| 2026-05-07 13:04 | 33.37806 | 109.06958 | 14994 ft | 285 kts | 84° |
| 2026-05-07 13:04 | 33.37978 | 109.09319 | 14999 ft | 285 kts | 83° |
| 2026-05-07 13:04 | 33.38154 | 109.11685 | 14997 ft | 285 kts | 83° |
| 2026-05-07 13:04 | 33.38330 | 109.14038 | 14997 ft | 285 kts | 83° |
| 2026-05-07 13:05 | 33.38510 | 109.16412 | 14990 ft | 285 kts | 84° |
| 2026-05-07 13:05 | 33.38687 | 109.18780 | 14998 ft | 285 kts | 83° |
| 2026-05-07 13:05 | 33.38863 | 109.21116 | 15000 ft | 286 kts | 83° |
| 2026-05-07 13:05 | 33.39038 | 109.23485 | 14995 ft | 286 kts | 83° |
| 2026-05-07 13:06 | 33.39214 | 109.25862 | 14993 ft | 286 kts | 83° |
| 2026-05-07 13:06 | 33.39390 | 109.28234 | 14982 ft | 286 kts | 83° |
| 2026-05-07 13:06 | 33.39564 | 109.30606 | 14994 ft | 286 kts | 83° |
| 2026-05-07 13:06 | 33.39740 | 109.32981 | 14993 ft | 286 kts | 83° |
| 2026-05-07 13:07 | 33.39915 | 109.35355 | 14994 ft | 286 kts | 83° |
| 2026-05-07 13:07 | 33.40089 | 109.37729 | 14995 ft | 287 kts | 83° |
| 2026-05-07 13:07 | 33.40262 | 109.40104 | 14990 ft | 287 kts | 83° |
| 2026-05-07 13:07 | 33.40434 | 109.42481 | 14992 ft | 287 kts | 84° |
| 2026-05-07 13:08 | 33.40608 | 109.44860 | 14987 ft | 286 kts | 84° |
| 2026-05-07 13:08 | 33.40779 | 109.47235 | 14988 ft | 286 kts | 84° |
| 2026-05-07 13:08 | 33.40951 | 109.49605 | 14987 ft | 285 kts | 84° |
| 2026-05-07 13:08 | 33.41121 | 109.51973 | 14992 ft | 285 kts | 84° |
| 2026-05-07 13:09 | 33.41290 | 109.54338 | 14993 ft | 286 kts | 84° |
| 2026-05-07 13:09 | 33.41462 | 109.56677 | 14998 ft | 286 kts | 83° |
| 2026-05-07 13:09 | 33.41674 | 109.59043 | 14992 ft | 286 kts | 82° |
| 2026-05-07 13:09 | 33.41898 | 109.61414 | 14991 ft | 287 kts | 82° |
| 2026-05-07 13:10 | 33.42131 | 109.63784 | 14993 ft | 287 kts | 82° |
| 2026-05-07 13:10 | 33.42363 | 109.66157 | 14992 ft | 287 kts | 82° |
| 2026-05-07 13:10 | 33.42597 | 109.68526 | 14995 ft | 287 kts | 82° |
| 2026-05-07 13:10 | 33.42828 | 109.70900 | 14992 ft | 287 kts | 82° |
| 2026-05-07 13:11 | 33.43061 | 109.73275 | 14989 ft | 287 kts | 82° |
| 2026-05-07 13:11 | 33.43292 | 109.75653 | 14988 ft | 287 kts | 82° |
| 2026-05-07 13:11 | 33.43522 | 109.78032 | 14990 ft | 287 kts | 82° |
| 2026-05-07 13:11 | 33.43755 | 109.80405 | 14988 ft | 287 kts | 82° |
| 2026-05-07 13:12 | 33.43985 | 109.82781 | 14991 ft | 287 kts | 82° |
| 2026-05-07 13:12 | 33.44212 | 109.85155 | 14991 ft | 287 kts | 82° |
| 2026-05-07 13:12 | 33.44442 | 109.87535 | 14988 ft | 288 kts | 82° |
| 2026-05-07 13:12 | 33.44670 | 109.89916 | 14983 ft | 288 kts | 82° |
| 2026-05-07 13:13 | 33.44900 | 109.92298 | 14988 ft | 288 kts | 82° |
| 2026-05-07 13:13 | 33.45127 | 109.94679 | 14991 ft | 288 kts | 82° |
| 2026-05-07 13:13 | 33.45357 | 109.97059 | 14994 ft | 288 kts | 82° |
| 2026-05-07 13:13 | 33.45583 | 109.99439 | 14989 ft | 288 kts | 82° |
| 2026-05-07 13:14 | 33.45809 | 110.01825 | 14986 ft | 288 kts | 82° |
| 2026-05-07 13:14 | 33.46038 | 110.04207 | 14989 ft | 288 kts | 82° |
| 2026-05-07 13:14 | 33.46263 | 110.06594 | 14986 ft | 288 kts | 82° |
| 2026-05-07 13:14 | 33.46486 | 110.08957 | 14989 ft | 289 kts | 82° |
| 2026-05-07 13:15 | 33.46711 | 110.11342 | 14990 ft | 289 kts | 82° |
| 2026-05-07 13:15 | 33.46936 | 110.13734 | 14987 ft | 289 kts | 82° |
| 2026-05-07 13:15 | 33.47161 | 110.16122 | 14982 ft | 289 kts | 82° |
| 2026-05-07 13:15 | 33.47384 | 110.18510 | 14990 ft | 288 kts | 82° |
| 2026-05-07 13:16 | 33.47460 | 110.19314 | 14987 ft | 288 kts | 82° |